THY8412 ESSA-LTFM
Flight info
| Callsign | THY8412 |
|---|---|
| Flight time | N/A |
| Altitude | 35000 |
| Route | BABAP T316 NEPVA/N0486F360 DCT ANFEV/N0480F370 DCT NUBLI N133 KOTEK DCT KENIN DCT RUTUV DCT RONBU DCT ATBOG DCT BUVAK DCT RIXEN |
| Aircraft | B77W/H-SDE1E2E3FGHIJ2J3J4J5M1RWXY/LB1D1 |
Departure
| Time | 2026-05-04 11:24 |
|---|---|
| Airport | Stockholm-Arlanda Airport (ESSA) |
Arrival
| Time | N/A |
|---|---|
| Airport | İstanbul Airport (LTFM) |
| Time | Latitude | Longitude | Altitude | Speed | Heading |
|---|---|---|---|---|---|
| 2026-05-04 11:16 | 59.65371 | 17.93968 | 122 ft | 0 kts | 346° |
| 2026-05-04 11:17 | 59.65372 | 17.93968 | 122 ft | 0 kts | 346° |
| 2026-05-04 11:19 | 59.65717 | 17.94073 | 128 ft | 17 kts | 75° |
| 2026-05-04 11:19 | 59.65748 | 17.94323 | 131 ft | 20 kts | 76° |
| 2026-05-04 11:19 | 59.65785 | 17.94617 | 134 ft | 23 kts | 77° |
| 2026-05-04 11:19 | 59.65827 | 17.94958 | 134 ft | 27 kts | 75° |
| 2026-05-04 11:20 | 59.65876 | 17.95333 | 133 ft | 28 kts | 76° |
| 2026-05-04 11:20 | 59.65924 | 17.95710 | 129 ft | 28 kts | 76° |
| 2026-05-04 11:20 | 59.65973 | 17.96089 | 126 ft | 28 kts | 76° |
| 2026-05-04 11:20 | 59.66021 | 17.96466 | 124 ft | 27 kts | 76° |
| 2026-05-04 11:22 | 59.66378 | 17.97854 | 139 ft | 10 kts | 295° |
| 2026-05-04 11:22 | 59.66367 | 17.97709 | 138 ft | 10 kts | 255° |
| 2026-05-04 11:23 | 59.66321 | 17.97360 | 135 ft | 68 kts | 256° |
| 2026-05-04 11:23 | 59.66112 | 17.95718 | 139 ft | 171 kts | 254° |
| 2026-05-04 11:24 | 59.65581 | 17.78660 | 5650 ft | 248 kts | 271° |
| 2026-05-04 11:25 | 59.65653 | 17.75210 | 6703 ft | 254 kts | 271° |
| 2026-05-04 11:25 | 59.65720 | 17.71781 | 7801 ft | 256 kts | 269° |
| 2026-05-04 11:25 | 59.65424 | 17.68336 | 8867 ft | 257 kts | 249° |
| 2026-05-04 11:26 | 59.63051 | 17.63024 | 10579 ft | 283 kts | 212° |
| 2026-05-04 11:27 | 59.49926 | 17.82576 | 15530 ft | 434 kts | 115° |